sensor_id;sensor_type;location;lat;lon;timestamp;pressure;altitude;pressure_sealevel;temperature;humidity
69796;BME280;57073;45.650;9.612;2022-09-14T00:00:51;98959.78;;;23.30;55.37
69796;BME280;57073;45.650;9.612;2022-09-14T00:02:53;98958.44;;;23.27;55.44
69796;BME280;57073;45.650;9.612;2022-09-14T00:04:53;98951.56;;;23.30;55.70
69796;BME280;57073;45.650;9.612;2022-09-14T00:06:53;98950.31;;;23.36;55.85
69796;BME280;57073;45.650;9.612;2022-09-14T00:08:55;98943.22;;;23.35;55.79
69796;BME280;57073;45.650;9.612;2022-09-14T00:10:57;98939.34;;;23.36;55.34
69796;BME280;57073;45.650;9.612;2022-09-14T00:12:57;98950.44;;;23.31;55.80
69796;BME280;57073;45.650;9.612;2022-09-14T00:14:59;98947.88;;;23.34;55.45
69796;BME280;57073;45.650;9.612;2022-09-14T00:17:00;98949.31;;;23.32;55.48
69796;BME280;57073;45.650;9.612;2022-09-14T00:19:22;98944.03;;;23.35;55.44
69796;BME280;57073;45.650;9.612;2022-09-14T00:21:23;98941.00;;;23.37;55.17
69796;BME280;57073;45.650;9.612;2022-09-14T00:23:23;98944.22;;;23.39;55.13
69796;BME280;57073;45.650;9.612;2022-09-14T00:25:24;98931.25;;;23.31;55.53
69796;BME280;57073;45.650;9.612;2022-09-14T00:27:25;98933.88;;;23.36;55.43
69796;BME280;57073;45.650;9.612;2022-09-14T00:29:25;98924.19;;;23.30;55.96
69796;BME280;57073;45.650;9.612;2022-09-14T00:31:26;98925.06;;;23.39;55.27
69796;BME280;57073;45.650;9.612;2022-09-14T00:33:26;98921.63;;;23.33;55.41
69796;BME280;57073;45.650;9.612;2022-09-14T00:35:27;98925.16;;;23.34;55.50
69796;BME280;57073;45.650;9.612;2022-09-14T00:37:27;98913.72;;;23.32;55.32
69796;BME280;57073;45.650;9.612;2022-09-14T00:39:27;98920.00;;;23.32;55.61
69796;BME280;57073;45.650;9.612;2022-09-14T00:41:31;98917.25;;;23.32;55.78
69796;BME280;57073;45.650;9.612;2022-09-14T00:43:31;98909.34;;;23.31;55.38
69796;BME280;57073;45.650;9.612;2022-09-14T00:45:32;98911.78;;;23.32;55.37
69796;BME280;57073;45.650;9.612;2022-09-14T00:47:33;98907.94;;;23.33;56.13
69796;BME280;57073;45.650;9.612;2022-09-14T00:49:36;98903.88;;;23.31;55.06
69796;BME280;57073;45.650;9.612;2022-09-14T00:51:44;98908.38;;;23.27;55.84
69796;BME280;57073;45.650;9.612;2022-09-14T00:53:45;98917.06;;;23.29;55.41
69796;BME280;57073;45.650;9.612;2022-09-14T00:55:47;98910.69;;;23.33;55.06
69796;BME280;57073;45.650;9.612;2022-09-14T00:57:50;98910.50;;;23.30;55.37
69796;BME280;57073;45.650;9.612;2022-09-14T00:59:53;98904.53;;;23.28;55.50
69796;BME280;57073;45.650;9.612;2022-09-14T01:01:54;98893.63;;;23.14;55.59
69796;BME280;57073;45.650;9.612;2022-09-14T01:03:55;98889.56;;;23.11;56.29
69796;BME280;57073;45.650;9.612;2022-09-14T01:11:05;98894.03;;;23.07;55.78
69796;BME280;57073;45.650;9.612;2022-09-14T01:22:19;98887.97;;;23.10;55.98
69796;BME280;57073;45.650;9.612;2022-09-14T01:24:27;98888.56;;;23.07;55.46
69796;BME280;57073;45.650;9.612;2022-09-14T01:29:07;98874.97;;;23.02;56.17
69796;BME280;57073;45.650;9.612;2022-09-14T01:31:15;98867.31;;;23.04;55.93
69796;BME280;57073;45.650;9.612;2022-09-14T01:33:21;98860.00;;;23.00;55.84
69796;BME280;57073;45.650;9.612;2022-09-14T01:35:39;98852.88;;;22.98;56.03
69796;BME280;57073;45.650;9.612;2022-09-14T01:37:47;98846.84;;;22.88;56.52
69796;BME280;57073;45.650;9.612;2022-09-14T01:40:21;98835.16;;;22.96;56.67
69796;BME280;57073;45.650;9.612;2022-09-14T01:42:25;98833.63;;;22.81;56.60
69796;BME280;57073;45.650;9.612;2022-09-14T01:44:31;98822.09;;;22.93;56.15
69796;BME280;57073;45.650;9.612;2022-09-14T01:46:43;98830.31;;;22.93;56.17
69796;BME280;57073;45.650;9.612;2022-09-14T01:48:49;98825.47;;;22.90;56.37
69796;BME280;57073;45.650;9.612;2022-09-14T01:50:55;98836.63;;;22.93;56.44
69796;BME280;57073;45.650;9.612;2022-09-14T01:53:03;98835.38;;;23.00;56.19
69796;BME280;57073;45.650;9.612;2022-09-14T01:55:09;98824.53;;;22.94;55.86
69796;BME280;57073;45.650;9.612;2022-09-14T01:57:18;98831.44;;;22.92;56.04
69796;BME280;57073;45.650;9.612;2022-09-14T01:59:25;98836.09;;;22.91;55.82
69796;BME280;57073;45.650;9.612;2022-09-14T02:01:34;98846.03;;;22.87;56.91
69796;BME280;57073;45.650;9.612;2022-09-14T02:03:45;98835.53;;;22.81;56.89
69796;BME280;57073;45.650;9.612;2022-09-14T02:07:58;98852.31;;;22.88;57.63
69796;BME280;57073;45.650;9.612;2022-09-14T02:09:58;98835.09;;;22.87;57.62
69796;BME280;57073;45.650;9.612;2022-09-14T02:11:59;98828.72;;;22.92;56.60
69796;BME280;57073;45.650;9.612;2022-09-14T02:14:00;98828.22;;;22.90;56.12
69796;BME280;57073;45.650;9.612;2022-09-14T02:16:00;98830.44;;;22.88;56.65
69796;BME280;57073;45.650;9.612;2022-09-14T02:18:01;98819.47;;;22.88;56.98
69796;BME280;57073;45.650;9.612;2022-09-14T02:20:04;98826.09;;;22.87;57.16
69796;BME280;57073;45.650;9.612;2022-09-14T02:22:06;98822.03;;;22.84;56.98
69796;BME280;57073;45.650;9.612;2022-09-14T02:24:07;98823.78;;;22.80;57.36
69796;BME280;57073;45.650;9.612;2022-09-14T02:26:08;98817.00;;;22.77;57.04
69796;BME280;57073;45.650;9.612;2022-09-14T02:28:10;98823.47;;;22.82;57.22
69796;BME280;57073;45.650;9.612;2022-09-14T02:30:10;98827.31;;;22.81;57.37
69796;BME280;57073;45.650;9.612;2022-09-14T02:32:47;98822.66;;;22.81;57.37
69796;BME280;57073;45.650;9.612;2022-09-14T02:40:07;98809.53;;;22.69;57.02
69796;BME280;57073;45.650;9.612;2022-09-14T02:47:25;98804.13;;;22.55;57.61
69796;BME280;57073;45.650;9.612;2022-09-14T02:50:17;98807.34;;;22.57;57.80
69796;BME280;57073;45.650;9.612;2022-09-14T02:52:16;98812.63;;;22.54;58.31
69796;BME280;57073;45.650;9.612;2022-09-14T02:54:57;98822.03;;;22.48;58.49
69796;BME280;57073;45.650;9.612;2022-09-14T02:57:01;98828.72;;;22.55;57.88
69796;BME280;57073;45.650;9.612;2022-09-14T02:59:02;98824.56;;;22.58;58.09
69796;BME280;57073;45.650;9.612;2022-09-14T03:01:04;98829.34;;;22.52;58.78
69796;BME280;57073;45.650;9.612;2022-09-14T03:03:06;98819.81;;;22.50;58.52
69796;BME280;57073;45.650;9.612;2022-09-14T03:05:07;98829.72;;;22.59;58.59
69796;BME280;57073;45.650;9.612;2022-09-14T03:07:07;98826.31;;;22.54;58.03
69796;BME280;57073;45.650;9.612;2022-09-14T03:09:07;98838.94;;;22.64;57.83
69796;BME280;57073;45.650;9.612;2022-09-14T03:11:08;98831.31;;;22.61;57.86
69796;BME280;57073;45.650;9.612;2022-09-14T03:13:09;98835.50;;;22.58;58.28
69796;BME280;57073;45.650;9.612;2022-09-14T03:15:09;98838.13;;;22.63;58.35
69796;BME280;57073;45.650;9.612;2022-09-14T03:17:10;98836.00;;;22.60;57.70
69796;BME280;57073;45.650;9.612;2022-09-14T03:19:10;98829.44;;;22.61;57.74
69796;BME280;57073;45.650;9.612;2022-09-14T03:21:13;98825.06;;;22.60;57.82
69796;BME280;57073;45.650;9.612;2022-09-14T03:23:14;98827.91;;;22.55;57.53
69796;BME280;57073;45.650;9.612;2022-09-14T03:25:15;98812.25;;;22.47;57.42
69796;BME280;57073;45.650;9.612;2022-09-14T03:27:16;98808.50;;;22.43;57.19
69796;BME280;57073;45.650;9.612;2022-09-14T03:29:16;98812.34;;;22.42;58.00
69796;BME280;57073;45.650;9.612;2022-09-14T03:31:17;98821.16;;;22.38;58.33
69796;BME280;57073;45.650;9.612;2022-09-14T03:33:17;98815.19;;;22.36;57.68
69796;BME280;57073;45.650;9.612;2022-09-14T03:35:18;98812.66;;;22.40;58.24
69796;BME280;57073;45.650;9.612;2022-09-14T03:37:18;98812.16;;;22.38;57.87
69796;BME280;57073;45.650;9.612;2022-09-14T03:39:19;98811.97;;;22.34;57.88
69796;BME280;57073;45.650;9.612;2022-09-14T03:41:20;98807.00;;;22.36;58.74
69796;BME280;57073;45.650;9.612;2022-09-14T03:43:21;98815.69;;;22.38;57.49
69796;BME280;57073;45.650;9.612;2022-09-14T03:45:21;98806.19;;;22.36;58.36
69796;BME280;57073;45.650;9.612;2022-09-14T03:47:21;98804.84;;;22.33;58.00
69796;BME280;57073;45.650;9.612;2022-09-14T03:49:22;98809.72;;;22.36;57.99
69796;BME280;57073;45.650;9.612;2022-09-14T03:51:22;98804.25;;;22.36;57.76
69796;BME280;57073;45.650;9.612;2022-09-14T03:53:23;98806.50;;;22.34;57.98
69796;BME280;57073;45.650;9.612;2022-09-14T03:55:23;98817.44;;;22.34;58.46
69796;BME280;57073;45.650;9.612;2022-09-14T03:57:23;98816.00;;;22.37;58.07
69796;BME280;57073;45.650;9.612;2022-09-14T03:59:24;98828.34;;;22.34;59.05
69796;BME280;57073;45.650;9.612;2022-09-14T04:01:24;98822.91;;;22.34;59.34
69796;BME280;57073;45.650;9.612;2022-09-14T04:03:25;98817.22;;;22.45;58.34
69796;BME280;57073;45.650;9.612;2022-09-14T04:05:25;98812.34;;;22.42;58.03
69796;BME280;57073;45.650;9.612;2022-09-14T04:07:25;98814.66;;;22.48;57.83
69796;BME280;57073;45.650;9.612;2022-09-14T04:09:26;98815.59;;;22.44;57.89
69796;BME280;57073;45.650;9.612;2022-09-14T04:11:26;98819.66;;;22.46;57.69
69796;BME280;57073;45.650;9.612;2022-09-14T04:13:28;98818.81;;;22.46;57.51
69796;BME280;57073;45.650;9.612;2022-09-14T04:15:28;98809.50;;;22.47;57.45
69796;BME280;57073;45.650;9.612;2022-09-14T04:17:28;98811.75;;;22.45;57.41
69796;BME280;57073;45.650;9.612;2022-09-14T04:19:29;98808.94;;;22.36;57.34
69796;BME280;57073;45.650;9.612;2022-09-14T04:21:30;98814.28;;;22.41;57.17
69796;BME280;57073;45.650;9.612;2022-09-14T04:23:31;98815.19;;;22.36;57.89
69796;BME280;57073;45.650;9.612;2022-09-14T04:25:32;98817.94;;;22.36;58.13
69796;BME280;57073;45.650;9.612;2022-09-14T04:27:32;98806.50;;;22.34;57.86
69796;BME280;57073;45.650;9.612;2022-09-14T04:29:33;98796.56;;;22.38;57.91
69796;BME280;57073;45.650;9.612;2022-09-14T04:31:33;98798.38;;;22.43;57.59
69796;BME280;57073;45.650;9.612;2022-09-14T04:33:34;98787.44;;;22.43;57.24
69796;BME280;57073;45.650;9.612;2022-09-14T04:35:35;98780.97;;;22.39;57.59
69796;BME280;57073;45.650;9.612;2022-09-14T04:37:36;98774.97;;;22.37;57.30
69796;BME280;57073;45.650;9.612;2022-09-14T04:39:37;98777.22;;;22.35;57.25
69796;BME280;57073;45.650;9.612;2022-09-14T04:41:38;98781.28;;;22.24;58.22
69796;BME280;57073;45.650;9.612;2022-09-14T04:43:39;98786.25;;;22.21;57.97
69796;BME280;57073;45.650;9.612;2022-09-14T04:45:39;98779.47;;;22.19;57.88
69796;BME280;57073;45.650;9.612;2022-09-14T04:47:40;98779.97;;;22.21;58.12
69796;BME280;57073;45.650;9.612;2022-09-14T04:49:40;98774.81;;;22.19;58.24
69796;BME280;57073;45.650;9.612;2022-09-14T04:51:41;98762.88;;;22.15;58.35
69796;BME280;57073;45.650;9.612;2022-09-14T04:53:42;98761.34;;;22.23;57.97
69796;BME280;57073;45.650;9.612;2022-09-14T04:55:43;98759.09;;;22.25;58.05
69796;BME280;57073;45.650;9.612;2022-09-14T04:57:43;98761.34;;;22.23;57.84
69796;BME280;57073;45.650;9.612;2022-09-14T04:59:44;98765.59;;;22.29;58.11
69796;BME280;57073;45.650;9.612;2022-09-14T05:01:45;98774.50;;;22.21;58.06
69796;BME280;57073;45.650;9.612;2022-09-14T05:03:49;98770.25;;;22.15;57.95
69796;BME280;57073;45.650;9.612;2022-09-14T05:05:50;98785.53;;;22.16;58.63
69796;BME280;57073;45.650;9.612;2022-09-14T05:07:50;98785.94;;;22.23;57.59
69796;BME280;57073;45.650;9.612;2022-09-14T05:09:51;98782.72;;;22.21;58.46
69796;BME280;57073;45.650;9.612;2022-09-14T05:11:51;98790.19;;;22.29;58.14
69796;BME280;57073;45.650;9.612;2022-09-14T05:13:53;98788.25;;;22.30;58.58
69796;BME280;57073;45.650;9.612;2022-09-14T05:15:54;98784.44;;;22.31;58.67
69796;BME280;57073;45.650;9.612;2022-09-14T05:17:55;98780.97;;;22.39;58.22
69796;BME280;57073;45.650;9.612;2022-09-14T05:19:55;98761.50;;;22.40;57.80
69796;BME280;57073;45.650;9.612;2022-09-14T05:21:55;98745.56;;;22.34;57.49
69796;BME280;57073;45.650;9.612;2022-09-14T05:24:05;98734.63;;;22.34;57.57
69796;BME280;57073;45.650;9.612;2022-09-14T05:26:06;98736.22;;;22.35;57.57
69796;BME280;57073;45.650;9.612;2022-09-14T05:28:07;98740.78;;;22.39;57.65
69796;BME280;57073;45.650;9.612;2022-09-14T05:30:08;98748.19;;;22.39;57.14
69796;BME280;57073;45.650;9.612;2022-09-14T05:32:08;98744.81;;;22.42;57.65
69796;BME280;57073;45.650;9.612;2022-09-14T05:34:09;98758.84;;;22.49;57.34
69796;BME280;57073;45.650;9.612;2022-09-14T05:36:10;98756.91;;;22.50;57.97
69796;BME280;57073;45.650;9.612;2022-09-14T05:38:10;98746.81;;;22.50;57.60
69796;BME280;57073;45.650;9.612;2022-09-14T05:40:11;98735.69;;;22.47;57.80
69796;BME280;57073;45.650;9.612;2022-09-14T05:42:11;98739.81;;;22.44;57.79
69796;BME280;57073;45.650;9.612;2022-09-14T05:44:11;98743.44;;;22.53;57.39
69796;BME280;57073;45.650;9.612;2022-09-14T05:46:14;98747.50;;;22.56;57.86
69796;BME280;57073;45.650;9.612;2022-09-14T05:48:15;98750.91;;;22.62;57.48
69796;BME280;57073;45.650;9.612;2022-09-14T05:50:15;98754.06;;;22.55;57.36
69796;BME280;57073;45.650;9.612;2022-09-14T05:52:16;98757.94;;;22.54;57.83
69796;BME280;57073;45.650;9.612;2022-09-14T05:54:16;98756.91;;;22.50;57.48
69796;BME280;57073;45.650;9.612;2022-09-14T05:56:19;98751.44;;;22.50;57.35
69796;BME280;57073;45.650;9.612;2022-09-14T05:58:19;98761.78;;;22.53;57.01
69796;BME280;57073;45.650;9.612;2022-09-14T06:00:20;98756.63;;;22.51;57.16
69796;BME280;57073;45.650;9.612;2022-09-14T06:02:21;98758.66;;;22.46;57.45
69796;BME280;57073;45.650;9.612;2022-09-14T06:04:21;98772.91;;;22.56;57.68
69796;BME280;57073;45.650;9.612;2022-09-14T06:06:23;98775.34;;;22.58;57.50
69796;BME280;57073;45.650;9.612;2022-09-14T06:08:23;98779.31;;;22.52;57.58
69796;BME280;57073;45.650;9.612;2022-09-14T06:10:23;98777.28;;;22.57;57.65
69796;BME280;57073;45.650;9.612;2022-09-14T06:12:24;98776.44;;;22.57;57.86
69796;BME280;57073;45.650;9.612;2022-09-14T06:14:26;98778.88;;;22.58;57.79
69796;BME280;57073;45.650;9.612;2022-09-14T06:16:27;98786.78;;;22.60;57.86
69796;BME280;57073;45.650;9.612;2022-09-14T06:18:30;98785.41;;;22.49;57.33
69796;BME280;57073;45.650;9.612;2022-09-14T06:20:30;98781.00;;;22.62;57.08
69796;BME280;57073;45.650;9.612;2022-09-14T06:22:31;98781.31;;;22.60;57.16
69796;BME280;57073;45.650;9.612;2022-09-14T06:24:31;98791.25;;;22.78;56.87
69796;BME280;57073;45.650;9.612;2022-09-14T06:26:32;98788.91;;;22.86;56.42
69796;BME280;57073;45.650;9.612;2022-09-14T06:28:33;98788.28;;;22.89;56.42
69796;BME280;57073;45.650;9.612;2022-09-14T06:30:34;98792.94;;;22.88;56.44
69796;BME280;57073;45.650;9.612;2022-09-14T06:32:34;98786.53;;;22.93;56.44
69796;BME280;57073;45.650;9.612;2022-09-14T06:34:34;98787.19;;;22.90;55.63
69796;BME280;57073;45.650;9.612;2022-09-14T06:36:35;98787.66;;;22.92;56.17
69796;BME280;57073;45.650;9.612;2022-09-14T06:38:35;98797.16;;;22.94;56.08
69796;BME280;57073;45.650;9.612;2022-09-14T06:40:36;98793.81;;;22.97;55.96
69796;BME280;57073;45.650;9.612;2022-09-14T06:42:36;98799.78;;;23.00;55.89
69796;BME280;57073;45.650;9.612;2022-09-14T06:44:36;98782.19;;;22.92;56.43
69796;BME280;57073;45.650;9.612;2022-09-14T06:46:37;98796.66;;;23.06;55.99
69796;BME280;57073;45.650;9.612;2022-09-14T06:48:46;98800.19;;;23.07;56.38
69796;BME280;57073;45.650;9.612;2022-09-14T06:50:47;98800.06;;;23.12;55.98
69796;BME280;57073;45.650;9.612;2022-09-14T06:52:47;98811.81;;;23.12;55.85
69796;BME280;57073;45.650;9.612;2022-09-14T06:54:48;98817.47;;;23.16;55.53
69796;BME280;57073;45.650;9.612;2022-09-14T06:56:48;98823.44;;;23.18;55.57
69796;BME280;57073;45.650;9.612;2022-09-14T06:58:48;98819.09;;;23.17;55.71
69796;BME280;57073;45.650;9.612;2022-09-14T07:00:51;98823.13;;;23.20;55.52
69796;BME280;57073;45.650;9.612;2022-09-14T07:02:53;98831.16;;;23.16;55.26
69796;BME280;57073;45.650;9.612;2022-09-14T07:04:53;98832.78;;;23.17;55.67
69796;BME280;57073;45.650;9.612;2022-09-14T07:06:54;98843.22;;;23.15;56.04
69796;BME280;57073;45.650;9.612;2022-09-14T07:08:55;98860.34;;;23.21;56.09
69796;BME280;57073;45.650;9.612;2022-09-14T07:10:56;98875.03;;;23.25;56.05
69796;BME280;57073;45.650;9.612;2022-09-14T07:12:58;98877.56;;;23.21;56.34
69796;BME280;57073;45.650;9.612;2022-09-14T07:14:59;98893.56;;;23.28;56.58
69796;BME280;57073;45.650;9.612;2022-09-14T07:16:59;98896.72;;;23.21;57.06
69796;BME280;57073;45.650;9.612;2022-09-14T07:19:03;98896.44;;;23.23;57.26
69796;BME280;57073;45.650;9.612;2022-09-14T07:21:12;98897.53;;;23.22;57.24
69796;BME280;57073;45.650;9.612;2022-09-14T07:23:13;98900.16;;;23.27;57.33
69796;BME280;57073;45.650;9.612;2022-09-14T07:25:13;98901.13;;;23.31;56.82
69796;BME280;57073;45.650;9.612;2022-09-14T07:27:14;98894.06;;;23.30;56.47
69796;BME280;57073;45.650;9.612;2022-09-14T07:29:17;98883.50;;;23.37;56.26
69796;BME280;57073;45.650;9.612;2022-09-14T07:31:28;98874.63;;;23.40;56.15
69796;BME280;57073;45.650;9.612;2022-09-14T07:33:29;98892.69;;;23.41;56.31
69796;BME280;57073;45.650;9.612;2022-09-14T07:35:31;98917.28;;;23.55;56.51
69796;BME280;57073;45.650;9.612;2022-09-14T07:37:31;98932.13;;;23.63;56.83
69796;BME280;57073;45.650;9.612;2022-09-14T07:39:32;98953.94;;;23.68;56.20
69796;BME280;57073;45.650;9.612;2022-09-14T07:41:33;98950.19;;;23.64;56.60
69796;BME280;57073;45.650;9.612;2022-09-14T07:43:34;98961.00;;;23.69;57.20
69796;BME280;57073;45.650;9.612;2022-09-14T07:45:36;98966.00;;;23.67;57.60
69796;BME280;57073;45.650;9.612;2022-09-14T07:47:37;98957.59;;;23.63;56.97
69796;BME280;57073;45.650;9.612;2022-09-14T07:49:37;98964.41;;;23.66;56.71
69796;BME280;57073;45.650;9.612;2022-09-14T07:51:38;98958.59;;;23.67;56.15
69796;BME280;57073;45.650;9.612;2022-09-14T07:53:40;98962.66;;;23.70;56.14
69796;BME280;57073;45.650;9.612;2022-09-14T07:55:41;98964.41;;;23.66;56.97
69796;BME280;57073;45.650;9.612;2022-09-14T07:57:42;98968.63;;;23.72;56.12
69796;BME280;57073;45.650;9.612;2022-09-14T07:59:43;98958.09;;;23.65;56.06
69796;BME280;57073;45.650;9.612;2022-09-14T08:01:43;98949.56;;;23.67;56.34
69796;BME280;57073;45.650;9.612;2022-09-14T08:03:45;98957.03;;;23.75;56.34
69796;BME280;57073;45.650;9.612;2022-09-14T08:05:47;98948.94;;;23.70;56.48
69796;BME280;57073;45.650;9.612;2022-09-14T08:07:53;98958.03;;;23.79;56.70
69796;BME280;57073;45.650;9.612;2022-09-14T08:09:54;98970.81;;;23.84;56.66
69796;BME280;57073;45.650;9.612;2022-09-14T08:11:54;98974.25;;;23.89;56.98
69796;BME280;57073;45.650;9.612;2022-09-14T08:13:58;98971.34;;;23.95;56.67
69796;BME280;57073;45.650;9.612;2022-09-14T08:15:59;98968.13;;;23.92;56.33
69796;BME280;57073;45.650;9.612;2022-09-14T08:18:00;98968.78;;;23.98;55.84
69796;BME280;57073;45.650;9.612;2022-09-14T08:20:01;98976.22;;;23.98;56.33
69796;BME280;57073;45.650;9.612;2022-09-14T08:22:02;98984.00;;;24.04;55.91
69796;BME280;57073;45.650;9.612;2022-09-14T08:24:03;98984.91;;;24.00;56.67
69796;BME280;57073;45.650;9.612;2022-09-14T08:26:10;98976.66;;;23.91;56.85
69796;BME280;57073;45.650;9.612;2022-09-14T08:28:10;98994.72;;;23.92;56.87
69796;BME280;57073;45.650;9.612;2022-09-14T08:30:11;98987.59;;;23.91;56.49
69796;BME280;57073;45.650;9.612;2022-09-14T08:32:12;98993.44;;;23.89;56.73
69796;BME280;57073;45.650;9.612;2022-09-14T08:34:14;98995.53;;;23.92;56.83
69796;BME280;57073;45.650;9.612;2022-09-14T08:36:17;98997.94;;;23.94;57.41
69796;BME280;57073;45.650;9.612;2022-09-14T08:38:18;98997.94;;;23.94;57.96
69796;BME280;57073;45.650;9.612;2022-09-14T08:40:18;98989.84;;;23.89;57.98
69796;BME280;57073;45.650;9.612;2022-09-14T08:42:19;99007.47;;;23.97;57.85
69796;BME280;57073;45.650;9.612;2022-09-14T08:44:39;99007.47;;;23.97;57.84
69796;BME280;57073;45.650;9.612;2022-09-14T08:46:54;99005.88;;;23.96;57.83
69796;BME280;57073;45.650;9.612;2022-09-14T08:48:57;99014.22;;;23.90;57.96
69796;BME280;57073;45.650;9.612;2022-09-14T08:50:59;99024.38;;;23.90;57.58
69796;BME280;57073;45.650;9.612;2022-09-14T08:52:59;99021.13;;;23.88;57.61
69796;BME280;57073;45.650;9.612;2022-09-14T08:57:44;99027.59;;;23.92;57.60
69796;BME280;57073;45.650;9.612;2022-09-14T09:09:26;99028.28;;;23.98;58.29
69796;BME280;57073;45.650;9.612;2022-09-14T09:11:36;99014.75;;;24.01;57.83
69796;BME280;57073;45.650;9.612;2022-09-14T09:13:39;99015.31;;;24.12;57.92
69796;BME280;57073;45.650;9.612;2022-09-14T09:15:47;99014.69;;;24.15;57.63
69796;BME280;57073;45.650;9.612;2022-09-14T09:17:55;99004.53;;;24.16;56.40
69796;BME280;57073;45.650;9.612;2022-09-14T09:20:23;98991.31;;;24.18;56.60
69796;BME280;57073;45.650;9.612;2022-09-14T09:22:29;98983.75;;;24.23;57.14
69796;BME280;57073;45.650;9.612;2022-09-14T09:24:38;98981.00;;;24.23;57.03
69796;BME280;57073;45.650;9.612;2022-09-14T09:26:39;98972.97;;;24.27;56.34
69796;BME280;57073;45.650;9.612;2022-09-14T09:28:46;98970.88;;;24.33;56.69
69796;BME280;57073;45.650;9.612;2022-09-14T09:30:48;98960.94;;;24.45;56.42
69796;BME280;57073;45.650;9.612;2022-09-14T09:32:49;98950.66;;;24.51;56.07
69796;BME280;57073;45.650;9.612;2022-09-14T09:34:50;98939.72;;;24.60;56.04
69796;BME280;57073;45.650;9.612;2022-09-14T09:36:51;98934.09;;;24.74;56.19
69796;BME280;57073;45.650;9.612;2022-09-14T09:38:51;98929.56;;;24.78;56.17
69796;BME280;57073;45.650;9.612;2022-09-14T09:41:10;98910.88;;;24.88;55.34
69796;BME280;57073;45.650;9.612;2022-09-14T09:43:16;98909.09;;;25.01;55.59
69796;BME280;57073;45.650;9.612;2022-09-14T09:45:17;98889.22;;;24.87;55.20
69796;BME280;57073;45.650;9.612;2022-09-14T09:47:28;98882.78;;;25.00;54.64
69796;BME280;57073;45.650;9.612;2022-09-14T09:49:37;98854.66;;;25.12;54.83
69796;BME280;57073;45.650;9.612;2022-09-14T09:51:39;98852.59;;;25.00;54.86
69796;BME280;57073;45.650;9.612;2022-09-14T09:54:20;98844.00;;;25.19;54.67
69796;BME280;57073;45.650;9.612;2022-09-14T09:56:21;98834.81;;;25.15;54.84
69796;BME280;57073;45.650;9.612;2022-09-14T09:58:42;98816.88;;;25.27;54.26
69796;BME280;57073;45.650;9.612;2022-09-14T10:00:54;98799.91;;;25.33;54.22
69796;BME280;57073;45.650;9.612;2022-09-14T10:02:55;98783.94;;;25.27;55.00
69796;BME280;57073;45.650;9.612;2022-09-14T10:07:18;98742.56;;;25.23;54.38
69796;BME280;57073;45.650;9.612;2022-09-14T10:09:24;98741.75;;;25.31;54.47
69796;BME280;57073;45.650;9.612;2022-09-14T10:13:34;98713.81;;;25.29;54.53
69796;BME280;57073;45.650;9.612;2022-09-14T10:15:36;98727.84;;;25.36;53.75
69796;BME280;57073;45.650;9.612;2022-09-14T10:17:37;98742.84;;;25.39;54.31
69796;BME280;57073;45.650;9.612;2022-09-14T10:19:37;98750.78;;;25.40;53.71
69796;BME280;57073;45.650;9.612;2022-09-14T10:30:25;98779.94;;;25.62;54.03
69796;BME280;57073;45.650;9.612;2022-09-14T10:32:27;98792.34;;;25.69;53.26
69796;BME280;57073;45.650;9.612;2022-09-14T10:34:29;98794.56;;;25.75;53.35
69796;BME280;57073;45.650;9.612;2022-09-14T10:36:32;98791.47;;;25.86;53.39
69796;BME280;57073;45.650;9.612;2022-09-14T10:38:45;98782.41;;;25.85;53.41
69796;BME280;57073;45.650;9.612;2022-09-14T10:45:28;98773.81;;;25.95;52.56
69796;BME280;57073;45.650;9.612;2022-09-14T10:47:45;98781.34;;;26.07;52.77
69796;BME280;57073;45.650;9.612;2022-09-14T10:54:32;98771.38;;;26.24;51.50
69796;BME280;57073;45.650;9.612;2022-09-14T10:56:51;98753.72;;;26.25;51.81
69796;BME280;57073;45.650;9.612;2022-09-14T10:59:24;98754.47;;;26.34;52.41
69796;BME280;57073;45.650;9.612;2022-09-14T11:08:45;98726.28;;;26.58;52.42
69796;BME280;57073;45.650;9.612;2022-09-14T11:13:32;98716.88;;;26.59;51.42
69796;BME280;57073;45.650;9.612;2022-09-14T11:18:16;98717.28;;;26.70;50.84
69796;BME280;57073;45.650;9.612;2022-09-14T11:20:22;98707.69;;;26.76;51.20
69796;BME280;57073;45.650;9.612;2022-09-14T11:22:41;98705.19;;;26.83;51.46
69796;BME280;57073;45.650;9.612;2022-09-14T11:24:58;98698.06;;;26.82;51.06
69796;BME280;57073;45.650;9.612;2022-09-14T11:27:20;98702.19;;;26.76;50.99
69796;BME280;57073;45.650;9.612;2022-09-14T11:29:35;98710.19;;;26.81;50.54
69796;BME280;57073;45.650;9.612;2022-09-14T11:34:10;98714.28;;;26.96;50.68
69796;BME280;57073;45.650;9.612;2022-09-14T11:36:18;98716.91;;;26.92;50.93
69796;BME280;57073;45.650;9.612;2022-09-14T11:38:25;98717.25;;;26.91;50.56
69796;BME280;57073;45.650;9.612;2022-09-14T11:40:35;98718.84;;;26.92;49.88
69796;BME280;57073;45.650;9.612;2022-09-14T11:44:44;98715.88;;;26.97;49.73
69796;BME280;57073;45.650;9.612;2022-09-14T11:46:58;98708.91;;;27.00;50.00
69796;BME280;57073;45.650;9.612;2022-09-14T11:51:48;98705.31;;;26.99;48.61
69796;BME280;57073;45.650;9.612;2022-09-14T11:53:50;98709.81;;;27.04;48.88
69796;BME280;57073;45.650;9.612;2022-09-14T11:55:51;98697.63;;;27.05;48.86
69796;BME280;57073;45.650;9.612;2022-09-14T11:57:52;98701.91;;;27.02;48.12
69796;BME280;57073;45.650;9.612;2022-09-14T12:00:00;98706.16;;;27.12;48.90
69796;BME280;57073;45.650;9.612;2022-09-14T12:04:29;98726.25;;;27.12;48.88
69796;BME280;57073;45.650;9.612;2022-09-14T12:10:30;98733.94;;;27.19;47.70
69796;BME280;57073;45.650;9.612;2022-09-14T12:12:32;98753.56;;;27.17;47.41
69796;BME280;57073;45.650;9.612;2022-09-14T12:14:34;98748.03;;;27.17;47.42
69796;BME280;57073;45.650;9.612;2022-09-14T12:17:02;98732.91;;;27.24;47.41
69796;BME280;57073;45.650;9.612;2022-09-14T12:19:02;98734.22;;;27.26;48.51
69796;BME280;57073;45.650;9.612;2022-09-14T12:25:24;98732.84;;;27.32;48.35
69796;BME280;57073;45.650;9.612;2022-09-14T12:27:24;98722.63;;;27.33;47.12
69796;BME280;57073;45.650;9.612;2022-09-14T12:29:26;98724.59;;;27.32;47.23